createdAt,value
2018-07-28T00:00:11.545Z,49.73
2018-07-28T00:01:16.171Z,50.02
2018-07-28T00:02:11.458Z,50.02
2018-07-28T00:03:14.174Z,49.34
2018-07-28T00:04:13.635Z,49.85
2018-07-28T00:05:15.135Z,49.85
2018-07-28T00:06:16.635Z,49.07
2018-07-28T00:07:30.638Z,48.69
2018-07-28T00:08:18.151Z,49.07
2018-07-28T00:09:12.136Z,48.97
2018-07-28T00:10:14.646Z,49.37
2018-07-28T00:11:14.137Z,48.30
2018-07-28T00:12:13.635Z,48.69
2018-07-28T00:13:15.217Z,48.97
2018-07-28T00:14:11.938Z,48.78
2018-07-28T00:15:17.679Z,49.07
2018-07-28T00:16:13.135Z,50.14
2018-07-28T00:17:32.159Z,51.11
2018-07-28T00:18:13.646Z,51.09
2018-07-28T00:19:13.156Z,51.09
2018-07-28T00:20:12.637Z,51.09
2018-07-28T00:21:12.640Z,51.76
2018-07-28T00:22:12.139Z,52.15
2018-07-28T00:23:17.146Z,52.64
2018-07-28T00:24:12.141Z,52.73
2018-07-28T00:25:11.202Z,53.58
2018-07-28T00:26:15.140Z,53.58
2018-07-28T00:27:14.651Z,50.96
2018-07-28T00:28:16.142Z,51.16
2018-07-28T00:29:11.645Z,52.12
2018-07-28T00:30:12.144Z,52.51
2018-07-28T00:31:11.234Z,52.80
2018-07-28T00:32:12.641Z,52.42
2018-07-28T00:33:12.142Z,52.51
2018-07-28T00:34:13.144Z,52.22
2018-07-28T00:35:11.642Z,53.58
2018-07-28T00:36:12.410Z,52.71
2018-07-28T00:37:15.144Z,53.75
2018-07-28T00:38:11.198Z,55.49
2018-07-28T00:39:11.648Z,54.13
2018-07-28T00:40:17.643Z,55.10
2018-07-28T00:41:12.645Z,54.23
2018-07-28T00:42:11.148Z,55.10
2018-07-28T00:43:12.648Z,53.45
2018-07-28T00:44:11.439Z,52.68
2018-07-28T00:45:11.457Z,52.39
2018-07-28T00:46:11.648Z,52.39
2018-07-28T00:47:32.144Z,52.58
2018-07-28T00:48:13.649Z,53.36
2018-07-28T00:49:11.780Z,52.49
2018-07-28T00:50:11.182Z,52.00
2018-07-28T00:51:11.149Z,52.61
2018-07-28T00:52:12.147Z,52.39
2018-07-28T00:53:12.150Z,52.39
2018-07-28T00:54:10.549Z,53.17
2018-07-28T00:55:14.148Z,54.62
2018-07-28T00:56:11.150Z,54.43
2018-07-28T00:57:12.160Z,54.71
2018-07-28T00:58:12.654Z,55.58
2018-07-28T00:59:11.148Z,54.79
2018-07-28T01:00:12.154Z,55.00
2018-07-28T01:01:11.007Z,55.98
2018-07-28T01:02:13.653Z,56.72
2018-07-28T01:03:12.151Z,56.04
2018-07-28T01:04:13.154Z,56.62
2018-07-28T01:05:10.308Z,55.94
2018-07-28T01:06:10.888Z,56.88
2018-07-28T01:07:12.153Z,56.82
2018-07-28T01:08:11.657Z,56.52
2018-07-28T01:09:11.164Z,57.08
2018-07-28T01:10:12.178Z,56.70
2018-07-28T01:11:11.653Z,57.46
2018-07-28T01:12:11.168Z,58.14
2018-07-28T01:13:10.981Z,58.04
2018-07-28T01:14:10.926Z,56.88
2018-07-28T01:15:10.941Z,59.31
2018-07-28T01:16:10.529Z,59.01
2018-07-28T01:17:10.175Z,58.34
2018-07-28T01:18:11.874Z,57.56
2018-07-28T01:19:12.699Z,58.24
2018-07-28T01:20:10.680Z,56.50
2018-07-28T01:21:10.051Z,59.40
2018-07-28T01:22:11.656Z,59.50
2018-07-28T01:23:12.160Z,59.50
2018-07-28T01:24:11.660Z,59.59
2018-07-28T01:25:16.159Z,59.47
2018-07-28T01:26:09.981Z,59.08
2018-07-28T01:27:11.660Z,58.60
2018-07-28T01:28:12.662Z,58.60
2018-07-28T01:29:11.661Z,59.76
2018-07-28T01:30:13.505Z,58.98
2018-07-28T01:31:12.163Z,59.47
2018-07-28T01:32:10.679Z,59.08
2018-07-28T01:33:11.167Z,59.18
2018-07-28T01:34:11.218Z,60.34
2018-07-28T01:35:09.889Z,60.53
2018-07-28T01:36:11.172Z,60.44
2018-07-28T01:37:10.662Z,59.86
2018-07-28T01:38:10.007Z,60.63
2018-07-28T01:39:11.445Z,60.82
2018-07-28T01:40:12.675Z,60.44
2018-07-28T01:41:09.719Z,59.95
2018-07-28T01:42:14.845Z,59.38
2018-07-28T01:43:09.702Z,58.80
2018-07-28T01:44:11.782Z,60.24
2018-07-28T01:45:10.667Z,60.14
2018-07-28T01:46:10.868Z,59.66
2018-07-28T01:47:11.667Z,60.44
2018-07-28T01:48:13.168Z,59.95
2018-07-28T01:49:09.552Z,60.92
2018-07-28T01:50:11.764Z,61.40
2018-07-28T01:51:11.191Z,60.44
2018-07-28T01:52:11.670Z,60.53
2018-07-28T01:53:12.456Z,60.44
2018-07-28T01:54:18.674Z,61.30
2018-07-28T01:55:11.171Z,59.95
2018-07-28T01:56:17.170Z,60.34
2018-07-28T01:57:11.671Z,60.44
2018-07-28T01:58:11.682Z,60.05
2018-07-28T01:59:10.684Z,60.27
2018-07-28T02:00:20.381Z,60.95
2018-07-28T02:01:10.679Z,60.53
2018-07-28T02:02:17.673Z,60.92
2018-07-28T02:03:10.674Z,61.21
2018-07-28T02:04:21.176Z,61.11
2018-07-28T02:05:09.250Z,60.92
2018-07-28T02:06:15.177Z,61.79
2018-07-28T02:07:11.173Z,61.40
2018-07-28T02:08:11.313Z,61.69
2018-07-28T02:09:09.377Z,61.60
2018-07-28T02:10:10.176Z,62.18
2018-07-28T02:11:09.282Z,62.27
2018-07-28T02:12:12.680Z,62.27
2018-07-28T02:13:10.185Z,62.37
2018-07-28T02:14:09.619Z,62.18
2018-07-28T02:15:09.312Z,62.47
2018-07-28T02:16:10.183Z,62.18
2018-07-28T02:17:10.185Z,61.69
2018-07-28T02:18:10.570Z,62.18
2018-07-28T02:19:10.678Z,62.18
2018-07-28T02:20:11.178Z,62.18
2018-07-28T02:21:12.181Z,62.95
2018-07-28T02:24:22.884Z,63.05
2018-07-28T02:25:22.895Z,63.46
2018-07-28T02:26:26.168Z,64.34
2018-07-28T02:27:24.665Z,65.69
2018-07-28T02:28:22.406Z,65.50
2018-07-28T02:29:22.712Z,65.98
2018-07-28T02:30:23.673Z,66.47
2018-07-28T02:31:24.166Z,66.37
2018-07-28T02:32:22.323Z,66.47
2018-07-28T02:33:23.179Z,66.66
2018-07-28T02:34:23.668Z,66.95
2018-07-28T02:35:23.678Z,66.27
2018-07-28T02:36:23.065Z,67.33
2018-07-28T02:37:30.150Z,67.63
2018-07-28T02:38:25.956Z,68.27
2018-07-28T02:39:25.177Z,68.11
2018-07-28T02:40:24.946Z,68.49
2018-07-28T02:41:23.170Z,68.46
2018-07-28T02:42:24.169Z,68.46
2018-07-28T02:43:23.628Z,69.33
2018-07-28T02:44:23.671Z,69.14
2018-07-28T02:45:27.338Z,69.43
2018-07-28T02:46:24.672Z,69.56
2018-07-28T02:47:23.172Z,69.53
2018-07-28T02:48:22.119Z,69.43
2018-07-28T02:49:25.420Z,69.62
2018-07-28T02:50:22.969Z,69.85
2018-07-28T02:51:43.686Z,69.24
2018-07-28T02:52:22.957Z,69.56
2018-07-28T02:53:25.173Z,69.46
2018-07-28T02:54:23.182Z,69.43
2018-07-28T02:55:23.677Z,69.72
2018-07-28T02:56:22.296Z,70.01
2018-07-28T02:57:23.174Z,69.82
2018-07-28T02:58:21.899Z,69.92
2018-07-28T02:59:23.676Z,70.01
2018-07-28T03:00:22.558Z,72.08
2018-07-28T03:01:21.891Z,73.30
2018-07-28T03:02:22.678Z,74.27
2018-07-28T03:03:23.678Z,75.81
2018-07-28T03:04:21.905Z,76.29
2018-07-28T03:05:22.248Z,77.03
2018-07-28T03:06:21.748Z,75.78
2018-07-28T03:07:21.821Z,76.55
2018-07-28T03:08:23.182Z,75.87
2018-07-28T03:09:22.545Z,77.32
2018-07-28T03:10:22.676Z,77.13
2018-07-28T03:11:24.679Z,77.13
2018-07-28T03:12:22.678Z,77.90
2018-07-28T03:13:23.181Z,78.29
2018-07-28T03:14:23.183Z,77.80
2018-07-28T03:15:22.017Z,77.90
2018-07-28T03:16:23.182Z,77.42
2018-07-28T03:17:23.183Z,78.19
2018-07-28T03:18:22.183Z,77.80
2018-07-28T03:19:22.508Z,77.80
2018-07-28T03:20:24.242Z,77.90
2018-07-28T03:21:21.497Z,77.86
2018-07-28T03:22:22.264Z,77.48
2018-07-28T03:23:22.684Z,77.28
2018-07-28T03:24:22.206Z,77.48
2018-07-28T03:25:22.185Z,77.86
2018-07-28T03:26:22.751Z,78.06
2018-07-28T03:27:21.424Z,77.86
2018-07-28T03:28:22.187Z,77.48
2018-07-28T03:29:22.715Z,77.67
2018-07-28T03:30:22.695Z,77.67
2018-07-28T03:31:21.404Z,77.48
2018-07-28T03:32:21.313Z,77.57
2018-07-28T03:33:22.687Z,77.19
2018-07-28T03:34:22.188Z,77.48
2018-07-28T03:35:21.685Z,77.67
2018-07-28T03:36:22.189Z,77.76
2018-07-28T03:37:21.290Z,77.67
2018-07-28T03:38:22.179Z,77.57
2018-07-28T03:39:22.113Z,77.57
2018-07-28T03:40:21.211Z,77.96
2018-07-28T03:41:22.691Z,77.96
2018-07-28T03:42:21.483Z,77.48
2018-07-28T03:43:21.694Z,77.57
2018-07-28T03:44:21.432Z,77.76
2018-07-28T03:45:21.692Z,77.28
2018-07-28T03:46:22.693Z,77.67
2018-07-28T03:47:22.725Z,77.67
2018-07-28T03:48:22.458Z,77.76
2018-07-28T03:49:21.749Z,77.67
2018-07-28T03:50:24.690Z,77.67
2018-07-28T03:51:20.964Z,77.76
2018-07-28T03:52:20.976Z,77.96
2018-07-28T03:53:21.288Z,77.76
2018-07-28T03:54:20.992Z,77.76
2018-07-28T03:55:21.698Z,77.86
2018-07-28T03:56:23.237Z,77.76
2018-07-28T03:57:21.693Z,77.76
2018-07-28T03:58:21.696Z,78.34
2018-07-28T03:59:21.254Z,78.25
2018-07-28T04:00:21.736Z,77.86
2018-07-28T04:01:21.695Z,77.86
2018-07-28T04:02:21.696Z,77.57
2018-07-28T04:03:22.699Z,78.54
2018-07-28T04:04:21.151Z,77.57
2018-07-28T04:05:21.710Z,77.67
2018-07-28T04:06:23.802Z,77.28
2018-07-28T04:07:21.067Z,77.86
2018-07-28T04:08:21.321Z,77.67
2018-07-28T04:09:21.696Z,77.76
2018-07-28T04:10:21.698Z,78.06
2018-07-28T04:11:21.214Z,78.83
2018-07-28T04:12:20.976Z,78.44
2018-07-28T04:13:21.699Z,78.54
2018-07-28T04:14:21.203Z,78.15
2018-07-28T04:15:21.828Z,79.02
2018-07-28T04:16:20.509Z,78.54
2018-07-28T04:17:20.922Z,78.92
2018-07-28T04:18:21.200Z,79.12
2018-07-28T04:19:21.213Z,79.02
2018-07-28T04:20:20.434Z,79.02
2018-07-28T04:21:20.845Z,79.22
2018-07-28T04:22:20.857Z,78.92
2018-07-28T04:23:21.208Z,79.31
2018-07-28T04:24:21.717Z,79.31
2018-07-28T04:25:21.701Z,78.92
2018-07-28T04:26:20.445Z,79.12
2018-07-28T04:27:23.203Z,78.73
2018-07-28T04:28:21.715Z,78.92
2018-07-28T04:29:21.138Z,79.80
2018-07-28T04:30:20.763Z,79.70
2018-07-28T04:31:20.794Z,80.08
2018-07-28T04:32:21.209Z,80.18
2018-07-28T04:33:21.204Z,79.99
2018-07-28T04:34:21.706Z,79.89
2018-07-28T04:35:20.322Z,80.76
2018-07-28T04:36:22.209Z,80.57
2018-07-28T04:37:20.767Z,80.95
2018-07-28T04:38:20.709Z,80.28
2018-07-28T04:39:21.307Z,79.50
2018-07-28T04:40:21.721Z,79.31
2018-07-28T04:41:20.255Z,79.70
2018-07-28T04:42:21.711Z,79.54
2018-07-28T04:43:21.710Z,79.25
2018-07-28T04:44:20.712Z,79.45
2018-07-28T04:45:21.707Z,78.77
2018-07-28T04:46:20.384Z,78.67
2018-07-28T04:47:20.073Z,79.06
2018-07-28T04:48:20.614Z,78.19
2018-07-28T04:49:21.715Z,78.48
2018-07-28T04:50:21.213Z,78.58
2018-07-28T04:51:27.218Z,78.96
2018-07-28T04:52:20.544Z,79.25
2018-07-28T04:53:21.218Z,79.00
2018-07-28T04:54:20.257Z,79.39
2018-07-28T04:55:20.240Z,79.54
2018-07-28T04:56:20.719Z,79.00
2018-07-28T04:57:20.645Z,79.10
2018-07-28T04:58:20.715Z,79.20
2018-07-28T04:59:20.713Z,78.33
2018-07-28T05:00:20.264Z,79.10
2018-07-28T05:01:20.585Z,78.61
2018-07-28T05:02:20.222Z,79.29
2018-07-28T05:03:22.217Z,79.29
2018-07-28T05:04:20.719Z,79.20
2018-07-28T05:05:19.787Z,79.00
2018-07-28T05:06:22.221Z,79.20
2018-07-28T05:07:20.048Z,79.00
2018-07-28T05:08:21.280Z,78.42
2018-07-28T05:09:21.151Z,77.94
2018-07-28T05:10:20.718Z,77.84
2018-07-28T05:11:19.545Z,78.33
2018-07-28T05:12:20.229Z,77.65
2018-07-28T05:13:20.234Z,78.52
2018-07-28T05:14:20.222Z,77.75
2018-07-28T05:15:25.228Z,77.26
2018-07-28T05:16:21.221Z,77.36
2018-07-28T05:17:21.222Z,77.07
2018-07-28T05:18:20.735Z,77.32
2018-07-28T05:19:20.724Z,77.51
2018-07-28T05:20:20.734Z,78.42
2018-07-28T05:21:20.723Z,78.09
2018-07-28T05:22:21.729Z,78.77
2018-07-28T05:23:19.728Z,78.09
2018-07-28T05:24:22.728Z,78.09
2018-07-28T05:25:29.942Z,77.51
2018-07-28T05:26:23.226Z,77.71
2018-07-28T05:27:21.310Z,77.03
2018-07-28T05:28:20.725Z,76.74
2018-07-28T05:29:20.731Z,76.84
2018-07-28T05:30:22.734Z,77.03
2018-07-28T05:31:20.742Z,77.13
2018-07-28T05:32:21.227Z,77.03
2018-07-28T05:33:20.061Z,76.64
2018-07-28T05:34:26.236Z,77.32
2018-07-28T05:35:21.238Z,77.22
2018-07-28T05:36:21.227Z,77.42
2018-07-28T05:37:20.729Z,77.67
2018-07-28T05:38:20.231Z,77.28
2018-07-28T05:39:20.734Z,77.90
2018-07-28T05:40:21.138Z,77.67
2018-07-28T05:41:21.732Z,77.61
2018-07-28T05:42:30.258Z,77.71
2018-07-28T05:43:21.733Z,77.90
2018-07-28T05:44:19.731Z,78.00
2018-07-28T05:45:19.739Z,78.87
2018-07-28T05:46:19.740Z,78.96
2018-07-28T05:47:18.779Z,79.16
2018-07-28T05:48:19.733Z,79.54
2018-07-28T05:49:19.733Z,80.32
2018-07-28T05:50:20.732Z,80.51
2018-07-28T05:51:22.239Z,80.51
2018-07-28T05:52:19.240Z,81.09
2018-07-28T05:53:20.234Z,82.31
2018-07-28T05:54:20.732Z,82.21
2018-07-28T05:55:20.234Z,82.60
2018-07-28T05:56:30.735Z,82.69
2018-07-28T05:57:26.737Z,83.66
2018-07-28T05:58:19.235Z,84.33
2018-07-28T05:59:19.236Z,84.91
2018-07-28T06:00:20.736Z,85.16
2018-07-28T06:01:19.237Z,85.94
2018-07-28T06:02:19.310Z,86.65
2018-07-28T06:03:20.738Z,85.84
2018-07-28T06:04:25.600Z,86.75
2018-07-28T06:06:11.381Z,86.56
2018-07-28T06:07:11.308Z,86.52
2018-07-28T06:09:04.231Z,86.71
2018-07-28T06:10:04.235Z,87.71
2018-07-28T06:11:57.081Z,86.90
2018-07-28T06:12:57.000Z,87.38
2018-07-28T06:14:49.935Z,87.23
2018-07-28T06:15:49.851Z,86.85
2018-07-28T06:17:42.785Z,86.56
2018-07-28T06:18:42.702Z,85.98
2018-07-28T06:20:35.638Z,86.36
2018-07-28T06:21:35.554Z,86.56
2018-07-28T06:23:28.483Z,86.94
2018-07-28T06:24:28.409Z,86.07
2018-07-28T06:26:21.335Z,84.91
2018-07-28T06:27:21.256Z,86.27
2018-07-28T06:29:14.289Z,86.36
2018-07-28T06:30:14.212Z,86.75
2018-07-28T06:32:07.140Z,87.43
2018-07-28T06:33:07.058Z,88.29
2018-07-28T06:34:07.131Z,85.98
2018-07-28T06:35:07.036Z,86.36
2018-07-28T06:36:07.037Z,87.04
2018-07-28T06:37:06.985Z,86.85
2018-07-28T06:38:07.051Z,86.46
2018-07-28T06:39:06.952Z,85.78
2018-07-28T06:40:06.960Z,86.27
2018-07-28T06:41:06.917Z,86.75
2018-07-28T06:42:06.971Z,87.33
2018-07-28T06:43:06.884Z,87.52
2018-07-28T06:44:06.882Z,86.85
2018-07-28T06:45:06.843Z,88.10
2018-07-28T06:46:06.916Z,88.93
2018-07-28T06:47:06.811Z,90.09
2018-07-28T06:48:06.804Z,89.99
2018-07-28T06:49:06.767Z,90.19
2018-07-28T06:50:06.818Z,89.99
2018-07-28T06:51:06.742Z,90.52
2018-07-28T06:52:06.830Z,90.19
2018-07-28T06:53:06.703Z,90.09
2018-07-28T06:54:06.742Z,90.19
2018-07-28T06:55:06.669Z,89.79
2018-07-28T06:56:06.754Z,90.19
2018-07-28T06:57:06.633Z,90.67
2018-07-28T06:58:06.666Z,90.86
2018-07-28T06:59:06.595Z,91.44
2018-07-28T07:00:06.679Z,90.47
2018-07-28T07:01:06.562Z,90.91
2018-07-28T07:02:06.592Z,90.77
2018-07-28T07:03:06.524Z,90.61
2018-07-28T07:04:06.600Z,90.91
2018-07-28T07:05:06.511Z,91.29
2018-07-28T07:06:06.506Z,91.67
2018-07-28T07:07:06.453Z,91.19
2018-07-28T07:08:06.539Z,91.39
2018-07-28T07:09:06.420Z,91.53
2018-07-28T07:10:06.431Z,92.41
2018-07-28T07:11:06.382Z,91.63
2018-07-28T07:12:06.442Z,91.63
2018-07-28T07:13:06.347Z,90.95
2018-07-28T07:14:06.352Z,90.61
2018-07-28T07:15:06.315Z,90.23
2018-07-28T07:16:06.363Z,91.49
2018-07-28T07:17:06.279Z,91.29
2018-07-28T07:18:06.276Z,90.61
2018-07-28T07:19:06.241Z,90.03
2018-07-28T07:20:06.286Z,89.94
2018-07-28T07:21:06.209Z,89.40
2018-07-28T07:22:06.300Z,90.08
2018-07-28T07:23:06.168Z,89.50
2018-07-28T07:24:06.208Z,88.92
2018-07-28T07:25:06.133Z,89.69
2018-07-28T07:26:06.222Z,88.73
2018-07-28T07:27:06.096Z,89.59
2018-07-28T07:28:06.132Z,89.50
2018-07-28T07:29:06.062Z,89.50
2018-07-28T07:30:06.144Z,89.50
2018-07-28T07:31:06.017Z,88.53
2018-07-28T07:32:06.056Z,88.15
2018-07-28T07:33:05.991Z,89.40
2018-07-28T07:34:06.068Z,88.24
2018-07-28T07:35:05.954Z,88.43
2018-07-28T07:36:06.034Z,88.92
2018-07-28T07:37:05.920Z,89.11
2018-07-28T07:38:05.990Z,88.92
2018-07-28T07:39:05.885Z,88.15
2018-07-28T07:40:05.900Z,88.43
2018-07-28T07:41:05.851Z,89.31
2018-07-28T07:42:05.912Z,87.99
2018-07-28T07:43:05.816Z,87.99
2018-07-28T07:44:06.989Z,88.19
2018-07-28T07:45:05.835Z,88.29
2018-07-28T07:46:05.832Z,88.29
2018-07-28T07:47:05.777Z,87.71
2018-07-28T07:48:05.740Z,86.65
2018-07-28T07:49:05.713Z,86.74
2018-07-28T07:50:05.755Z,87.23
2018-07-28T07:51:05.678Z,86.83
2018-07-28T07:52:05.771Z,86.88
2018-07-28T07:53:05.640Z,86.88
2018-07-28T07:54:05.680Z,86.59
2018-07-28T07:55:05.610Z,86.30
2018-07-28T07:56:05.691Z,86.10
2018-07-28T07:57:05.574Z,85.86
2018-07-28T07:58:05.602Z,84.75
2018-07-28T07:59:05.539Z,86.20
2018-07-28T08:00:05.611Z,85.66
2018-07-28T08:01:05.501Z,85.86
2018-07-28T08:02:05.523Z,84.79
2018-07-28T08:03:05.471Z,84.69
2018-07-28T08:04:05.534Z,84.31
2018-07-28T08:05:05.434Z,84.31
2018-07-28T08:06:05.445Z,83.78
2018-07-28T08:07:05.402Z,83.98
2018-07-28T08:08:05.383Z,84.27
2018-07-28T08:09:05.364Z,83.98
2018-07-28T08:10:05.445Z,83.69
2018-07-28T08:11:05.335Z,83.98
2018-07-28T08:12:05.832Z,84.46
2018-07-28T08:13:05.303Z,84.60
2018-07-28T08:14:06.751Z,85.08
2018-07-28T08:15:05.264Z,85.18
2018-07-28T08:16:05.282Z,84.79
2018-07-28T08:17:05.231Z,83.92
2018-07-28T08:18:05.296Z,84.25
2018-07-28T08:19:05.193Z,84.06
2018-07-28T08:20:05.210Z,84.55
2018-07-28T08:21:05.225Z,83.86
2018-07-28T08:22:05.222Z,82.80
2018-07-28T08:23:05.130Z,83.58
2018-07-28T08:24:05.141Z,82.47
2018-07-28T08:25:05.096Z,83.28
2018-07-28T08:26:05.148Z,82.90
2018-07-28T08:27:05.060Z,82.51
2018-07-28T08:28:05.061Z,82.51
2018-07-28T08:29:05.029Z,82.70
2018-07-28T08:30:05.078Z,83.18
2018-07-28T08:31:04.995Z,82.32
2018-07-28T08:32:05.088Z,81.68
2018-07-28T08:33:04.964Z,81.39
2018-07-28T08:34:05.004Z,80.57
2018-07-28T08:35:04.926Z,80.96
2018-07-28T08:36:05.016Z,80.47
2018-07-28T08:37:04.895Z,81.77
2018-07-28T08:38:04.928Z,81.00
2018-07-28T08:39:04.860Z,79.84
2018-07-28T08:40:05.007Z,80.32
2018-07-28T08:41:04.830Z,79.64
2018-07-28T08:42:04.852Z,80.32
2018-07-28T08:43:04.804Z,79.55
2018-07-28T08:44:04.869Z,79.74
2018-07-28T08:45:04.766Z,79.45
2018-07-28T08:46:04.779Z,78.97
2018-07-28T08:47:04.734Z,80.32
2018-07-28T08:48:04.792Z,78.38
2018-07-28T08:49:04.792Z,78.19
2018-07-28T08:50:04.704Z,78.67
2018-07-28T08:51:04.665Z,78.09
2018-07-28T08:52:04.718Z,79.25
2018-07-28T08:53:04.636Z,79.16
2018-07-28T08:54:04.634Z,78.00
2018-07-28T08:55:04.600Z,77.90
2018-07-28T08:56:04.643Z,77.70
2018-07-28T08:57:04.569Z,78.05
2018-07-28T08:58:04.663Z,78.25
2018-07-28T08:59:04.537Z,78.58
2018-07-28T09:00:04.576Z,78.58
2018-07-28T09:01:04.500Z,78.29
2018-07-28T09:02:04.590Z,78.48
2018-07-28T09:03:04.468Z,77.90
2018-07-28T09:04:04.498Z,78.38
2018-07-28T09:05:04.437Z,77.90
2018-07-28T09:06:04.567Z,78.77
2018-07-28T09:07:04.403Z,78.87
2018-07-28T09:08:04.424Z,79.06
2018-07-28T09:09:04.374Z,78.81
2018-07-28T09:10:04.439Z,77.65
2018-07-28T09:11:04.335Z,78.23
2018-07-28T09:12:04.349Z,78.23
2018-07-28T09:13:04.306Z,76.97
2018-07-28T09:14:04.367Z,77.11
2018-07-28T09:15:04.274Z,75.94
2018-07-28T09:16:04.298Z,75.55
2018-07-28T09:17:04.240Z,76.32
2018-07-28T09:18:04.367Z,77.11
2018-07-28T09:19:04.207Z,76.14
2018-07-28T09:20:04.198Z,75.65
2018-07-28T09:21:04.174Z,76.23
2018-07-28T09:22:04.221Z,76.52
2018-07-28T09:23:04.140Z,75.84
2018-07-28T09:24:04.229Z,75.81
2018-07-28T09:25:04.113Z,76.39
2018-07-28T09:26:04.141Z,76.29
2018-07-28T09:27:04.076Z,76.78
2018-07-28T09:28:04.155Z,77.06
2018-07-28T09:29:04.050Z,76.48
2018-07-28T09:30:04.068Z,76.68
2018-07-28T09:31:04.011Z,76.48
2018-07-28T09:32:04.082Z,75.71
2018-07-28T09:33:03.982Z,76.39
2018-07-28T09:34:03.994Z,76.39
2018-07-28T09:35:03.947Z,76.48
2018-07-28T09:36:04.009Z,76.39
2018-07-28T09:37:03.928Z,77.36
2018-07-28T09:38:03.922Z,76.87
2018-07-28T09:39:03.889Z,76.19
2018-07-28T09:40:03.935Z,75.32
2018-07-28T09:41:03.851Z,74.16
2018-07-28T09:42:03.847Z,75.26
2018-07-28T09:43:03.818Z,75.65
2018-07-28T09:44:03.861Z,76.04
2018-07-28T09:45:03.788Z,75.07
2018-07-28T09:46:03.878Z,74.19
2018-07-28T09:47:03.770Z,73.42
2018-07-28T09:48:03.792Z,74.87
2018-07-28T09:49:03.724Z,74.87
2018-07-28T09:50:03.804Z,75.07
2018-07-28T09:51:03.691Z,73.80
2018-07-28T09:52:03.714Z,74.77
2018-07-28T09:53:03.663Z,74.87
2018-07-28T09:54:03.729Z,75.07
2018-07-28T09:55:03.627Z,74.29
2018-07-28T09:56:03.700Z,74.58
2018-07-28T09:57:03.596Z,73.80
2018-07-28T09:58:03.654Z,74.87
2018-07-28T09:59:03.562Z,75.36
2018-07-28T10:00:03.568Z,73.71
2018-07-28T10:01:03.533Z,74.10
2018-07-28T10:02:03.581Z,73.46
2018-07-28T10:03:03.500Z,74.23
2018-07-28T10:04:03.594Z,73.74
2018-07-28T10:05:03.472Z,74.75
2018-07-28T10:06:03.506Z,74.07
2018-07-28T10:07:03.443Z,73.39
2018-07-28T10:08:03.522Z,71.45
2018-07-28T10:09:03.404Z,74.37
2018-07-28T10:10:03.432Z,72.91
2018-07-28T10:11:03.375Z,72.33
2018-07-28T10:12:03.446Z,73.49
2018-07-28T10:13:03.342Z,72.81
2018-07-28T10:14:03.359Z,72.23
2018-07-28T10:15:03.319Z,70.48
2018-07-28T10:16:03.369Z,69.80
2018-07-28T10:17:03.283Z,70.87
2018-07-28T10:18:03.282Z,71.68
2018-07-28T10:19:03.256Z,71.00
2018-07-28T10:20:03.297Z,69.93
2018-07-28T10:21:03.223Z,69.87
2018-07-28T10:22:03.312Z,70.26
2018-07-28T10:23:03.261Z,68.70
2018-07-28T10:24:03.223Z,67.93
2018-07-28T10:25:03.158Z,67.24
2018-07-28T10:26:03.238Z,66.99
2018-07-28T10:27:03.133Z,68.54
2018-07-28T10:28:03.150Z,67.31
2018-07-28T10:29:03.099Z,66.96
2018-07-28T10:30:03.170Z,65.98
2018-07-28T10:31:03.068Z,64.23
2018-07-28T10:32:03.073Z,65.69
2018-07-28T10:33:03.045Z,64.26
2018-07-28T10:34:03.092Z,62.22
2018-07-28T10:35:03.011Z,63.68
2018-07-28T10:36:03.105Z,62.44
2018-07-28T10:37:02.980Z,62.63
2018-07-28T10:38:03.017Z,60.88
2018-07-28T10:39:02.951Z,61.60
2018-07-28T10:40:03.034Z,59.42
2018-07-28T10:41:02.924Z,60.30
2018-07-28T10:42:02.942Z,60.85
2018-07-28T10:43:02.897Z,61.83
2018-07-28T10:44:02.957Z,62.57
2018-07-28T10:45:02.865Z,62.41
2018-07-28T10:46:03.902Z,62.96
2018-07-28T10:47:02.863Z,64.91
2018-07-28T10:48:07.793Z,65.33
2018-07-28T10:49:02.802Z,63.90
2018-07-28T10:50:02.901Z,62.35
2018-07-28T10:51:02.782Z,61.96
2018-07-28T10:52:02.825Z,62.18
2018-07-28T10:53:02.760Z,63.38
2018-07-28T10:54:02.824Z,62.21
2018-07-28T10:55:02.728Z,62.53
2018-07-28T10:56:02.737Z,62.24
2018-07-28T10:57:02.702Z,61.49
2018-07-28T10:58:02.747Z,61.10
2018-07-28T10:59:02.677Z,61.00
2018-07-28T11:00:02.795Z,60.81
2018-07-28T11:01:02.648Z,60.91
2018-07-28T11:02:02.676Z,60.91
2018-07-28T11:03:02.622Z,59.64
2018-07-28T11:04:02.690Z,61.88
2018-07-28T11:05:02.592Z,60.81
2018-07-28T11:06:02.602Z,61.49
2018-07-28T11:07:02.566Z,61.04
2018-07-28T11:08:02.620Z,61.74
2018-07-28T11:09:02.579Z,58.23
2018-07-28T11:10:02.630Z,58.98
2018-07-28T11:11:02.513Z,57.25
2018-07-28T11:12:02.545Z,57.15
2018-07-28T11:13:02.491Z,57.54
2018-07-28T11:14:02.554Z,56.76
2018-07-28T11:15:02.460Z,57.42
2018-07-28T11:16:02.468Z,57.91
2018-07-28T11:17:02.437Z,58.33
2018-07-28T11:18:02.483Z,56.93
2018-07-28T11:19:02.455Z,57.45
2018-07-28T11:20:02.499Z,57.25
2018-07-28T11:21:02.386Z,56.02
2018-07-28T11:22:02.409Z,57.39
2018-07-28T11:23:02.359Z,57.20
2018-07-28T11:24:03.449Z,58.01
2018-07-28T11:25:02.337Z,58.50
2018-07-28T11:26:02.423Z,56.61
2018-07-28T11:27:02.313Z,57.52
2018-07-28T11:28:02.350Z,58.47
2018-07-28T11:29:02.291Z,56.54
2018-07-28T11:30:02.367Z,55.27
2018-07-28T11:31:02.267Z,56.74
2018-07-28T11:32:02.337Z,56.54
2018-07-28T11:33:02.256Z,57.23
2018-07-28T11:34:02.293Z,56.35
2018-07-28T11:35:02.216Z,56.47
2018-07-28T11:36:02.304Z,55.10
2018-07-28T11:37:02.186Z,55.30
2018-07-28T11:38:02.213Z,56.37
2018-07-28T11:39:02.162Z,56.37
2018-07-28T11:40:02.226Z,55.98
2018-07-28T11:41:02.141Z,54.52
2018-07-28T11:42:02.141Z,53.74
2018-07-28T11:43:02.116Z,54.61
2018-07-28T11:44:02.159Z,54.10
2018-07-28T11:45:02.090Z,56.47
2018-07-28T11:46:02.166Z,54.44
2018-07-28T11:47:02.065Z,53.96
2018-07-28T11:48:02.056Z,53.32
2018-07-28T11:49:02.042Z,53.13
2018-07-28T11:50:02.094Z,54.13
2018-07-28T11:51:02.018Z,53.93
2018-07-28T11:52:02.111Z,54.03
2018-07-28T11:53:02.001Z,53.96
2018-07-28T11:54:01.986Z,54.44
2018-07-28T11:55:02.032Z,52.71
2018-07-28T11:56:01.956Z,53.78
2018-07-28T11:57:02.047Z,52.64
2018-07-28T11:58:01.947Z,51.66
2018-07-28T11:59:01.974Z,50.68
2018-07-28T12:00:01.913Z,53.33
2018-07-28T12:01:01.972Z,52.51
2018-07-28T12:02:01.888Z,52.39
2018-07-28T12:03:01.992Z,53.76
2018-07-28T12:04:01.862Z,54.52
2018-07-28T12:05:01.896Z,53.34
2018-07-28T12:06:01.834Z,54.71
2018-07-28T12:07:01.913Z,52.29
2018-07-28T12:08:01.815Z,52.98
2018-07-28T12:09:01.825Z,52.37
2018-07-28T12:10:01.790Z,53.25
2018-07-28T12:11:01.839Z,53.93
2018-07-28T12:12:01.768Z,52.49
2018-07-28T12:13:01.856Z,53.56
2018-07-28T12:14:01.746Z,54.25
2018-07-28T12:15:01.856Z,52.59
2018-07-28T12:16:01.721Z,52.49
2018-07-28T12:17:01.778Z,52.69
2018-07-28T12:18:01.712Z,53.93
2018-07-28T12:19:01.791Z,54.25
2018-07-28T12:20:01.674Z,55.32
2018-07-28T12:21:01.704Z,54.38
2018-07-28T12:22:01.650Z,54.01
2018-07-28T12:23:01.719Z,54.79
2018-07-28T12:24:01.682Z,53.16
2018-07-28T12:25:01.629Z,52.34
2018-07-28T12:26:01.604Z,52.91
2018-07-28T12:27:01.646Z,54.30
2018-07-28T12:28:01.590Z,53.03
2018-07-28T12:29:01.658Z,53.23
2018-07-28T12:30:01.559Z,52.61
2018-07-28T12:31:01.569Z,54.42
2018-07-28T12:32:01.537Z,55.40
2018-07-28T12:33:01.588Z,56.01
2018-07-28T12:34:01.515Z,56.20
2018-07-28T12:35:01.669Z,52.91
2018-07-28T12:36:01.492Z,53.03
2018-07-28T12:37:01.509Z,52.47
2018-07-28T12:38:01.469Z,52.59
2018-07-28T12:39:01.524Z,50.83
2018-07-28T12:40:01.448Z,51.22
2018-07-28T12:41:01.542Z,51.37
2018-07-28T12:42:01.424Z,51.64
2018-07-28T12:43:01.450Z,52.98
2018-07-28T12:44:01.400Z,53.05
2018-07-28T12:45:01.464Z,53.42
2018-07-28T12:46:01.376Z,53.03
2018-07-28T12:47:01.477Z,52.47
2018-07-28T12:48:01.354Z,53.83
2018-07-28T12:49:01.389Z,52.76
2018-07-28T12:50:01.333Z,53.15
2018-07-28T12:51:01.404Z,53.93
2018-07-28T12:52:01.312Z,53.71
2018-07-28T12:53:01.316Z,54.69
2018-07-28T12:54:01.290Z,54.75
2018-07-28T12:55:01.337Z,55.34
2018-07-28T12:56:01.262Z,55.63
2018-07-28T12:57:01.256Z,55.71
2018-07-28T12:58:01.353Z,55.32
2018-07-28T12:59:01.230Z,55.12
2018-07-28T13:00:01.263Z,55.51
2018-07-28T13:01:01.205Z,55.71
2018-07-28T13:02:01.278Z,54.83
2018-07-28T13:03:01.184Z,55.41